sensor_id;sensor_type;location;lat;lon;timestamp;P1;durP1;ratioP1;P2;durP2;ratioP2
27869;SDS011;15225;50.730;4.244;2023-05-16T19:48:27;8.52;;;2.55;;
27869;SDS011;15225;50.730;4.244;2023-05-16T19:50:53;8.95;;;2.90;;
27869;SDS011;15225;50.730;4.244;2023-05-16T19:53:18;8.10;;;3.63;;
27869;SDS011;15225;50.730;4.244;2023-05-16T19:55:44;9.70;;;3.30;;
27869;SDS011;15225;50.730;4.244;2023-05-16T19:58:11;12.68;;;4.32;;
27869;SDS011;15225;50.730;4.244;2023-05-16T20:00:37;12.27;;;4.03;;
27869;SDS011;15225;50.730;4.244;2023-05-16T20:03:03;12.32;;;3.22;;
27869;SDS011;15225;50.730;4.244;2023-05-16T20:05:28;9.85;;;3.45;;
27869;SDS011;15225;50.730;4.244;2023-05-16T20:07:55;6.97;;;2.92;;
27869;SDS011;15225;50.730;4.244;2023-05-16T20:10:20;13.55;;;4.00;;
27869;SDS011;15225;50.730;4.244;2023-05-16T20:12:46;11.05;;;3.60;;
27869;SDS011;15225;50.730;4.244;2023-05-16T20:15:12;8.18;;;3.05;;
27869;SDS011;15225;50.730;4.244;2023-05-16T20:17:37;9.73;;;4.00;;
27869;SDS011;15225;50.730;4.244;2023-05-16T20:20:04;10.05;;;3.72;;
27869;SDS011;15225;50.730;4.244;2023-05-16T20:22:32;7.97;;;3.42;;
27869;SDS011;15225;50.730;4.244;2023-05-16T20:24:59;8.30;;;3.55;;
27869;SDS011;15225;50.730;4.244;2023-05-16T20:27:24;11.88;;;3.67;;
27869;SDS011;15225;50.730;4.244;2023-05-16T20:29:50;9.60;;;3.45;;
27869;SDS011;15225;50.730;4.244;2023-05-16T20:32:19;9.88;;;3.72;;
27869;SDS011;15225;50.730;4.244;2023-05-16T20:34:45;9.50;;;4.68;;
27869;SDS011;15225;50.730;4.244;2023-05-16T20:37:11;12.90;;;4.60;;
27869;SDS011;15225;50.730;4.244;2023-05-16T20:39:37;8.25;;;4.03;;
27869;SDS011;15225;50.730;4.244;2023-05-16T20:42:04;10.07;;;4.07;;
27869;SDS011;15225;50.730;4.244;2023-05-16T20:44:35;8.10;;;4.00;;
27869;SDS011;15225;50.730;4.244;2023-05-16T20:47:04;11.77;;;4.45;;
27869;SDS011;15225;50.730;4.244;2023-05-16T20:49:31;16.08;;;4.45;;
27869;SDS011;15225;50.730;4.244;2023-05-16T20:51:56;15.35;;;4.25;;
27869;SDS011;15225;50.730;4.244;2023-05-16T20:54:22;11.70;;;3.92;;
27869;SDS011;15225;50.730;4.244;2023-05-16T20:56:48;13.85;;;4.57;;
27869;SDS011;15225;50.730;4.244;2023-05-16T20:59:14;14.15;;;4.65;;
27869;SDS011;15225;50.730;4.244;2023-05-16T21:01:40;10.50;;;4.40;;
27869;SDS011;15225;50.730;4.244;2023-05-16T21:04:05;12.75;;;4.95;;
27869;SDS011;15225;50.730;4.244;2023-05-16T21:06:31;11.93;;;4.63;;
27869;SDS011;15225;50.730;4.244;2023-05-16T21:08:57;8.48;;;4.07;;
27869;SDS011;15225;50.730;4.244;2023-05-16T21:11:22;12.68;;;4.57;;
27869;SDS011;15225;50.730;4.244;2023-05-16T21:13:48;8.68;;;4.63;;
27869;SDS011;15225;50.730;4.244;2023-05-16T21:16:14;10.95;;;4.13;;
27869;SDS011;15225;50.730;4.244;2023-05-16T21:18:39;12.77;;;4.40;;
27869;SDS011;15225;50.730;4.244;2023-05-16T21:21:05;14.30;;;4.18;;
27869;SDS011;15225;50.730;4.244;2023-05-16T21:23:31;12.85;;;4.00;;
27869;SDS011;15225;50.730;4.244;2023-05-16T21:25:56;9.73;;;4.30;;
27869;SDS011;15225;50.730;4.244;2023-05-16T21:28:22;11.23;;;4.32;;
27869;SDS011;15225;50.730;4.244;2023-05-16T21:30:48;11.15;;;4.13;;
27869;SDS011;15225;50.730;4.244;2023-05-16T21:33:13;13.57;;;4.82;;
27869;SDS011;15225;50.730;4.244;2023-05-16T21:35:39;11.20;;;4.63;;
27869;SDS011;15225;50.730;4.244;2023-05-16T21:38:05;13.15;;;4.47;;
